Humidity-temperature Sensor

Selected Measurement Type: Relative Humidity

 
Relative Humidity [%]     6 entries per hour
Showing data from 2/1/2023 (00:00:00 Z) to 1/29/2023 (00:01:00 Z)
Previous Next [ Day | 3-Days | 7-Days ]
First Last
Prev [ Day | 3-Days | 7-Days ] Next
First Last

Start Time:     :
End Time:     :     
Time (in GMT) :00 :50 :40 :30 :20 :10
Previous Next [ Day | 3-Days | 7-Days ]
First Last
Prev [ Day | 3-Days | 7-Days ] Next
First Last


123 => good data
MM => data is determined as missing
-- => data not received/configured
Back to Top Back to Top
2/1/2023 00:00 to 23:10 84.84 85.25 85.52 85.29 85.64 85.13
1/31/2023 23:00 to 22:10 85.89 86.30 86.81 86.96 86.65 86.57
1/31/2023 22:00 to 21:10 86.55 86.71 86.83 86.57 86.94 87.02
1/31/2023 21:00 to 20:10 87.18 87.49 87.57 87.41 86.87 86.75
1/31/2023 20:00 to 19:10 86.22 86.24 86.26 86.69 86.85 87.26
1/31/2023 19:00 to 18:10 87.59 87.88 87.43 86.53 86.48 87.29
1/31/2023 18:00 to 17:10 87.59 87.45 86.77 86.28 87.12 87.66
1/31/2023 17:00 to 16:10 86.40 85.66 85.85 84.84 84.35 84.98
1/31/2023 16:00 to 15:10 85.68 85.91 85.17 84.72 85.13 84.84
1/31/2023 15:00 to 14:10 84.82 85.62 85.64 85.17 84.92 84.45
1/31/2023 14:00 to 13:10 85.60 86.50 87.06 86.63 86.77 86.53
1/31/2023 13:00 to 12:10 86.40 86.18 85.66 85.64 85.31 84.33
1/31/2023 12:00 to 11:10 84.12 84.10 85.07 85.17 85.42 85.42
1/31/2023 11:00 to 10:10 85.29 86.22 86.18 85.85 85.44 85.29
1/31/2023 10:00 to 9:10 85.25 85.85 86.32 86.46 86.55 86.96
1/31/2023 09:00 to 8:10 87.10 86.77 86.85 87.06 87.35 87.76
1/31/2023 08:00 to 7:10 87.80 87.02 86.81 87.47 87.70 87.74
1/31/2023 07:00 to 6:10 88.07 88.29 88.56 88.37 88.40 88.40
1/31/2023 06:00 to 5:10 88.37 88.44 88.58 88.97 89.36 89.38
1/31/2023 05:00 to 4:10 89.11 88.91 89.46 89.32 89.22 88.68
1/31/2023 04:00 to 3:10 88.25 88.09 87.66 87.37 87.10 87.31
1/31/2023 03:00 to 2:10 87.26 86.98 87.26 87.41 87.51 87.70
1/31/2023 02:00 to 1:10 87.84 87.76 87.53 87.82 88.11 87.96
1/31/2023 01:00 to 0:10 88.05 87.68 87.39 87.00 86.96 87.24
1/31/2023 00:00 to 23:10 87.26 87.33 87.51 87.61 87.74 87.53
1/30/2023 23:00 to 22:10 87.84 87.78 87.82 88.23 88.72 88.37
1/30/2023 22:00 to 21:10 88.27 87.76 87.80 88.33 88.42 88.42
1/30/2023 21:00 to 20:10 88.40 88.27 88.37 88.09 88.35 88.00
1/30/2023 20:00 to 19:10 87.92 87.88 87.94 88.35 87.98 87.57
1/30/2023 19:00 to 18:10 87.68 88.48 89.24 90.00 90.18 90.04
1/30/2023 18:00 to 17:10 89.38 89.46 89.65 89.44 89.38 89.40
1/30/2023 17:00 to 16:10 89.73 89.81 90.10 90.20 90.27 90.72
1/30/2023 16:00 to 15:10 91.09 91.03 91.19 91.68 92.24 92.85
1/30/2023 15:00 to 14:10 93.66 93.96 94.29 93.74 93.59 93.80
1/30/2023 14:00 to 13:10 93.90 93.80 93.53 93.70 93.39 92.96
1/30/2023 13:00 to 12:10 92.79 92.69 92.83 92.81 92.94 92.90
1/30/2023 12:00 to 11:10 92.77 92.83 92.73 92.83 92.77 92.77
1/30/2023 11:00 to 10:10 92.65 92.53 92.38 92.16 92.05 91.87
1/30/2023 10:00 to 9:10 91.54 91.31 91.15 90.94 91.03 90.88
1/30/2023 09:00 to 8:10 90.76 90.53 90.45 90.37 90.24 90.35
1/30/2023 08:00 to 7:10 90.51 90.80 91.09 91.29 91.35 91.44
1/30/2023 07:00 to 6:10 91.42 91.35 91.31 91.13 91.15 91.25
1/30/2023 06:00 to 5:10 91.09 91.17 91.27 91.05 91.15 91.09
1/30/2023 05:00 to 4:10 91.23 91.42 91.54 91.35 91.58 91.52
1/30/2023 04:00 to 3:10 91.66 91.66 91.91 92.05 92.16 92.50
1/30/2023 03:00 to 2:10 92.59 92.90 93.02 93.18 93.35 93.51
1/30/2023 02:00 to 1:10 93.41 93.37 93.41 93.41 93.45 93.59
1/30/2023 01:00 to 0:10 93.37 93.47 93.29 93.10 93.22 92.83
1/30/2023 00:00 to 23:10 92.73 92.57 92.34 92.50 92.75 93.14
1/29/2023 23:00 to 22:10 93.86 94.81 95.90 97.01 97.66 97.91
1/29/2023 22:00 to 21:10 98.16 98.42 98.48 98.59 98.73 98.73
1/29/2023 21:00 to 20:10 98.71 98.51 98.53 98.51 98.30 98.26
1/29/2023 20:00 to 19:10 98.46 98.30 98.59 98.53 98.79 98.94
1/29/2023 19:00 to 18:10 99.02 99.22 99.29 98.94 98.63 98.18
1/29/2023 18:00 to 17:10 97.89 97.42 96.68 95.71 94.89 94.23
1/29/2023 17:00 to 16:10 92.94 93.12 92.71 92.36 92.36 92.14
1/29/2023 16:00 to 15:10 92.46 92.96 93.24 93.66 92.96 91.97
1/29/2023 15:00 to 14:10 91.37 91.15 91.13 91.05 90.90 90.86
1/29/2023 14:00 to 13:10 90.78 90.12 89.13 88.83 89.71 90.41
1/29/2023 13:00 to 12:10 90.94 91.56 92.42 93.10 93.74 94.03
1/29/2023 12:00 to 11:10 94.40 95.26 95.77 96.14 96.27 96.10
1/29/2023 11:00 to 10:10 95.55 95.73 96.16 97.23 98.42 98.81
1/29/2023 10:00 to 9:10 99.18 99.14 99.04 98.73 98.09 97.56
1/29/2023 09:00 to 8:10 95.53 93.84 92.26 92.65 92.67 93.00
1/29/2023 08:00 to 7:10 93.08 93.12 92.57 92.20 92.34 92.75
1/29/2023 07:00 to 6:10 92.94 93.22 93.64 93.86 93.90 94.23
1/29/2023 06:00 to 5:10 94.11 94.13 94.03 94.11 93.82 93.29
1/29/2023 05:00 to 4:10 92.92 92.55 91.89 91.17 90.18 89.71
1/29/2023 04:00 to 3:10 89.61 89.67 89.32 89.38 89.38 88.87
1/29/2023 03:00 to 2:10 88.35 89.18 90.47 90.68 90.74 91.11
1/29/2023 02:00 to 1:10 91.40 91.81 92.38 92.46 92.92 94.52
1/29/2023 01:00 to 0:10 96.72 98.05 98.98 99.55 100.31 100.75